Time;durP1;ratioP1;P1;durP2;ratioP2;P2;SDS_P1;SDS_P2;PMS_P1;PMS_P2;Temp;Humidity;BMP_temperature;BMP_pressure;BME280_temperature;BME280_humidity;BME280_pressure;Samples;Min_cycle;Max_cycle;Signal;HPM_P1;HPM_P2
2022/03/29 00:00:08;;;;;;;20.20;7.35;;;;;;;;;;5030873;28;20378;-84
2022/03/29 00:02:33;;;;;;;18.08;7.40;;;;;;;;;;5030660;28;20105;-92
2022/03/29 00:05:02;;;;;;;22.55;8.55;;;;;;;;;;5030520;28;20097;-92
2022/03/29 00:07:27;;;;;;;18.95;7.72;;;;;;;;;;5016139;28;20010;-84
2022/03/29 00:09:52;;;;;;;22.52;9.10;;;;;;;;;;5030627;28;20537;-92
2022/03/29 00:12:18;;;;;;;25.13;9.23;;;;;;;;;;5015173;28;20025;-84
2022/03/29 00:14:43;;;;;;;22.05;7.75;;;;;;;;;;5030651;28;20064;-93
2022/03/29 00:17:08;;;;;;;22.00;9.05;;;;;;;;;;5014850;28;20092;-92
2022/03/29 00:19:33;;;;;;;20.80;9.40;;;;;;;;;;5027603;28;20010;-92
2022/03/29 00:21:59;;;;;;;24.15;10.23;;;;;;;;;;5034561;28;20100;-91
2022/03/29 00:24:24;;;;;;;21.73;8.73;;;;;;;;;;5030183;28;20025;-93
2022/03/29 00:26:49;;;;;;;24.80;10.20;;;;;;;;;;5016318;28;20374;-92
2022/03/29 00:29:14;;;;;;;23.13;8.63;;;;;;;;;;5034495;28;20387;-86
2022/03/29 00:31:40;;;;;;;31.77;10.50;;;;;;;;;;5030124;28;20455;-87
2022/03/29 00:34:05;;;;;;;26.30;9.15;;;;;;;;;;5014741;28;20029;-84
2022/03/29 00:36:31;;;;;;;19.90;8.18;;;;;;;;;;5018203;28;20385;-84
2022/03/29 00:38:56;;;;;;;21.50;8.98;;;;;;;;;;5033083;28;20033;-90
2022/03/29 00:41:21;;;;;;;25.13;8.55;;;;;;;;;;5034263;28;20029;-92
2022/03/29 00:43:47;;;;;;;24.60;9.93;;;;;;;;;;5033959;28;20067;-93
2022/03/29 00:46:12;;;;;;;24.38;9.82;;;;;;;;;;5033532;28;20080;-92
2022/03/29 00:48:38;;;;;;;21.92;8.40;;;;;;;;;;5034217;28;20371;-92
2022/03/29 00:51:04;;;;;;;21.23;8.65;;;;;;;;;;5033132;28;20032;-87
2022/03/29 00:53:30;;;;;;;32.35;12.40;;;;;;;;;;5033955;28;20429;-90
2022/03/29 00:55:55;;;;;;;27.25;11.20;;;;;;;;;;5032488;28;20025;-84
2022/03/29 00:58:21;;;;;;;22.00;8.75;;;;;;;;;;5033614;28;20029;-92
2022/03/29 01:00:47;;;;;;;22.27;9.80;;;;;;;;;;5033015;28;20017;-92
2022/03/29 01:03:12;;;;;;;19.65;7.47;;;;;;;;;;5029320;28;20470;-84
2022/03/29 01:05:37;;;;;;;28.48;10.52;;;;;;;;;;5026187;28;20109;-90
2022/03/29 01:08:04;;;;;;;25.77;8.95;;;;;;;;;;5014082;28;20057;-92
2022/03/29 01:10:29;;;;;;;21.55;8.65;;;;;;;;;;5032417;28;20025;-92
2022/03/29 01:12:55;;;;;;;20.08;8.43;;;;;;;;;;5027013;28;20033;-92
2022/03/29 01:15:22;;;;;;;19.50;8.32;;;;;;;;;;5028861;28;20026;-92
2022/03/29 01:17:48;;;;;;;20.45;8.73;;;;;;;;;;5011914;28;20022;-92
2022/03/29 01:20:18;;;;;;;22.05;8.57;;;;;;;;;;5013635;28;20108;-93
2022/03/29 01:22:44;;;;;;;21.20;8.95;;;;;;;;;;5013768;28;20092;-85
2022/03/29 01:25:13;;;;;;;22.75;8.48;;;;;;;;;;5012526;28;20034;-92
2022/03/29 01:27:38;;;;;;;23.88;8.25;;;;;;;;;;5013818;28;20081;-92
2022/03/29 01:30:04;;;;;;;26.38;10.13;;;;;;;;;;5012631;28;20057;-84
2022/03/29 01:32:29;;;;;;;27.13;10.45;;;;;;;;;;5014030;28;20037;-92
2022/03/29 01:34:55;;;;;;;23.73;10.05;;;;;;;;;;5013697;28;20068;-91
2022/03/29 01:37:21;;;;;;;24.95;10.05;;;;;;;;;;5014055;28;20561;-89
2022/03/29 01:39:46;;;;;;;24.58;9.82;;;;;;;;;;5012304;28;20025;-93
2022/03/29 01:42:11;;;;;;;23.10;9.32;;;;;;;;;;5014778;28;20024;-84
2022/03/29 01:44:37;;;;;;;25.02;10.63;;;;;;;;;;5012326;28;20053;-89
2022/03/29 01:47:02;;;;;;;25.80;10.75;;;;;;;;;;5013654;28;20022;-92
2022/03/29 01:49:28;;;;;;;26.75;11.10;;;;;;;;;;5013332;28;20384;-93
2022/03/29 01:51:53;;;;;;;27.00;10.07;;;;;;;;;;5012825;28;20022;-83
2022/03/29 01:54:18;;;;;;;25.40;11.18;;;;;;;;;;5012224;28;20037;-89
2022/03/29 01:56:43;;;;;;;19.92;8.90;;;;;;;;;;5012934;28;20502;-91
2022/03/29 01:59:12;;;;;;;23.10;10.20;;;;;;;;;;5013785;28;20469;-92
2022/03/29 02:01:45;;;;;;;32.03;13.05;;;;;;;;;;5012258;28;20483;-91
2022/03/29 02:04:10;;;;;;;29.08;11.60;;;;;;;;;;5012313;28;20494;-92
2022/03/29 02:06:35;;;;;;;25.00;10.10;;;;;;;;;;5013051;28;20462;-92
2022/03/29 02:09:01;;;;;;;24.27;10.75;;;;;;;;;;5013748;28;20022;-84
2022/03/29 02:11:26;;;;;;;23.67;9.70;;;;;;;;;;5013996;28;20463;-85
2022/03/29 02:13:52;;;;;;;24.35;9.93;;;;;;;;;;5013566;28;20068;-92
2022/03/29 02:16:17;;;;;;;22.10;9.05;;;;;;;;;;5012919;28;20018;-91
2022/03/29 02:18:42;;;;;;;24.95;9.45;;;;;;;;;;5028709;28;20471;-92
2022/03/29 02:21:08;;;;;;;29.80;10.40;;;;;;;;;;5013048;28;20022;-92
2022/03/29 02:23:33;;;;;;;20.95;9.40;;;;;;;;;;5011951;28;20040;-87
2022/03/29 02:25:58;;;;;;;23.35;10.48;;;;;;;;;;5030392;28;20037;-91
2022/03/29 02:28:23;;;;;;;19.80;8.48;;;;;;;;;;5012249;28;20029;-85
2022/03/29 02:30:49;;;;;;;20.15;9.48;;;;;;;;;;5015869;28;20029;-92
2022/03/29 02:33:15;;;;;;;23.98;10.00;;;;;;;;;;5016117;28;20025;-92
2022/03/29 02:35:41;;;;;;;26.38;9.68;;;;;;;;;;5015672;28;20467;-83
2022/03/29 02:38:06;;;;;;;22.20;9.95;;;;;;;;;;5015559;28;20076;-93
2022/03/29 02:40:31;;;;;;;23.00;9.75;;;;;;;;;;5017251;28;20033;-84
2022/03/29 02:42:57;;;;;;;22.70;9.55;;;;;;;;;;5032219;28;20489;-84
2022/03/29 02:45:26;;;;;;;23.15;9.75;;;;;;;;;;5016696;28;20388;-92
2022/03/29 02:47:53;;;;;;;22.45;9.95;;;;;;;;;;5015943;28;20033;-93
2022/03/29 02:50:18;;;;;;;25.63;9.93;;;;;;;;;;5016592;28;20497;-92
2022/03/29 02:52:48;;;;;;;25.80;10.13;;;;;;;;;;5014947;28;20026;-91
2022/03/29 02:55:18;;;;;;;26.15;11.65;;;;;;;;;;5016421;28;20054;-92
2022/03/29 02:57:43;;;;;;;32.90;13.07;;;;;;;;;;5015137;28;20117;-83
2022/03/29 03:00:10;;;;;;;28.42;12.50;;;;;;;;;;5015198;28;20450;-90
2022/03/29 03:02:37;;;;;;;29.60;13.52;;;;;;;;;;5015559;28;20018;-84
2022/03/29 03:05:02;;;;;;;30.50;14.00;;;;;;;;;;5015202;28;20060;-93
2022/03/29 03:07:28;;;;;;;26.80;12.35;;;;;;;;;;5018086;28;20458;-91
2022/03/29 03:09:54;;;;;;;23.60;10.32;;;;;;;;;;5032786;28;20036;-93
2022/03/29 03:12:19;;;;;;;24.80;10.95;;;;;;;;;;5030348;28;20014;-92
2022/03/29 03:14:44;;;;;;;26.80;11.88;;;;;;;;;;5032020;28;20026;-91
2022/03/29 03:17:10;;;;;;;25.58;10.40;;;;;;;;;;5015721;28;20064;-92
2022/03/29 03:19:35;;;;;;;28.67;12.13;;;;;;;;;;5022988;28;20072;-84
2022/03/29 03:22:00;;;;;;;31.88;11.93;;;;;;;;;;5035768;28;20462;-84
2022/03/29 03:24:26;;;;;;;24.20;11.02;;;;;;;;;;5034160;28;20071;-92
2022/03/29 03:26:51;;;;;;;24.42;10.70;;;;;;;;;;5035485;28;20029;-92
2022/03/29 03:29:16;;;;;;;25.15;11.60;;;;;;;;;;5034797;28;20021;-92
2022/03/29 03:31:41;;;;;;;26.55;13.85;;;;;;;;;;5034577;28;20041;-89
2022/03/29 03:34:06;;;;;;;28.33;12.75;;;;;;;;;;5035601;28;20018;-84
2022/03/29 03:36:32;;;;;;;30.67;13.18;;;;;;;;;;5035627;28;20013;-86
2022/03/29 03:38:57;;;;;;;25.83;12.70;;;;;;;;;;5036352;28;20462;-91
2022/03/29 03:41:22;;;;;;;33.50;14.05;;;;;;;;;;5033330;28;20021;-93
2022/03/29 03:43:47;;;;;;;29.52;14.23;;;;;;;;;;5034077;28;20038;-84
2022/03/29 03:46:13;;;;;;;28.92;14.05;;;;;;;;;;5033737;28;20025;-92
2022/03/29 03:48:38;;;;;;;30.73;15.50;;;;;;;;;;5033699;28;20500;-92
2022/03/29 03:51:03;;;;;;;33.42;15.95;;;;;;;;;;5035197;28;20044;-92
2022/03/29 03:53:29;;;;;;;32.15;15.50;;;;;;;;;;5035150;28;20021;-92
2022/03/29 03:55:54;;;;;;;35.17;17.20;;;;;;;;;;5034357;28;20028;-84
2022/03/29 03:58:19;;;;;;;37.85;17.67;;;;;;;;;;5035187;28;20018;-88
2022/03/29 04:00:44;;;;;;;38.40;18.40;;;;;;;;;;5034057;28;20075;-93
2022/03/29 04:03:09;;;;;;;41.85;18.75;;;;;;;;;;5034287;28;20501;-92
2022/03/29 04:05:35;;;;;;;38.88;18.00;;;;;;;;;;5035219;28;20043;-92
2022/03/29 04:08:00;;;;;;;40.72;20.50;;;;;;;;;;5033697;28;20112;-92
2022/03/29 04:10:26;;;;;;;40.97;19.98;;;;;;;;;;5033698;28;20043;-90
2022/03/29 04:12:51;;;;;;;37.38;18.77;;;;;;;;;;5033983;28;20026;-93
2022/03/29 04:15:16;;;;;;;40.70;19.65;;;;;;;;;;5035989;28;20409;-91
2022/03/29 04:17:44;;;;;;;39.80;21.30;;;;;;;;;;5034827;28;20083;-92
2022/03/29 04:20:10;;;;;;;47.97;25.95;;;;;;;;;;5016563;28;20077;-92
2022/03/29 04:22:35;;;;;;;34.50;18.25;;;;;;;;;;5017164;28;20030;-84
2022/03/29 04:25:00;;;;;;;36.72;19.77;;;;;;;;;;5032333;28;20443;-87
2022/03/29 04:27:26;;;;;;;38.72;19.77;;;;;;;;;;5034322;28;20018;-90
2022/03/29 04:29:51;;;;;;;36.35;18.27;;;;;;;;;;5031145;28;20017;-92
2022/03/29 04:32:16;;;;;;;39.60;19.85;;;;;;;;;;5031461;28;20026;-92
2022/03/29 04:34:44;;;;;;;37.00;19.88;;;;;;;;;;5034774;28;20021;-93
2022/03/29 04:37:09;;;;;;;37.63;18.80;;;;;;;;;;5034250;28;20009;-93
2022/03/29 04:39:37;;;;;;;44.05;21.95;;;;;;;;;;5034337;28;20033;-92
2022/03/29 04:42:02;;;;;;;42.45;19.95;;;;;;;;;;5033446;28;20032;-85
2022/03/29 04:44:27;;;;;;;48.15;22.15;;;;;;;;;;5033037;28;20021;-90
2022/03/29 04:46:52;;;;;;;41.42;21.33;;;;;;;;;;5034789;28;20080;-92
2022/03/29 04:49:18;;;;;;;41.10;19.67;;;;;;;;;;5033186;28;20026;-92
2022/03/29 04:51:43;;;;;;;36.72;18.08;;;;;;;;;;5033593;28;20537;-92
2022/03/29 04:54:09;;;;;;;41.42;20.33;;;;;;;;;;5034444;28;20023;-92
2022/03/29 04:56:34;;;;;;;39.92;19.35;;;;;;;;;;5032958;28;20010;-92
2022/03/29 04:58:59;;;;;;;53.30;30.98;;;;;;;;;;5033288;28;20394;-91
2022/03/29 05:01:25;;;;;;;73.32;36.53;;;;;;;;;;5034456;28;20013;-92
2022/03/29 05:03:50;;;;;;;71.38;37.10;;;;;;;;;;5032959;28;20076;-91
2022/03/29 05:06:15;;;;;;;44.38;23.70;;;;;;;;;;5033411;28;20017;-91
2022/03/29 05:08:41;;;;;;;38.80;20.05;;;;;;;;;;5034082;28;20033;-88
2022/03/29 05:11:06;;;;;;;40.30;19.70;;;;;;;;;;5033172;28;20029;-89
2022/03/29 05:13:31;;;;;;;40.63;19.55;;;;;;;;;;5034344;28;20029;-84
2022/03/29 05:15:56;;;;;;;41.30;20.85;;;;;;;;;;5034092;28;20029;-84
2022/03/29 05:18:22;;;;;;;40.72;20.25;;;;;;;;;;5030402;28;20391;-90
2022/03/29 05:20:47;;;;;;;36.38;18.27;;;;;;;;;;5033483;28;20016;-90
2022/03/29 05:23:15;;;;;;;40.28;19.27;;;;;;;;;;5032650;28;20032;-93
2022/03/29 05:25:40;;;;;;;38.00;18.75;;;;;;;;;;5032289;28;20421;-93
2022/03/29 05:28:06;;;;;;;38.20;20.35;;;;;;;;;;5028204;28;20100;-85
2022/03/29 05:30:32;;;;;;;36.20;17.42;;;;;;;;;;5013415;28;20032;-93
2022/03/29 05:32:57;;;;;;;40.83;18.90;;;;;;;;;;5028722;28;20029;-84
2022/03/29 05:35:25;;;;;;;40.17;20.88;;;;;;;;;;5029111;28;20084;-92
2022/03/29 05:37:50;;;;;;;43.03;22.17;;;;;;;;;;5033075;28;20017;-93
2022/03/29 05:40:16;;;;;;;40.22;19.10;;;;;;;;;;5032386;28;20036;-85
2022/03/29 05:42:41;;;;;;;43.58;18.70;;;;;;;;;;5032698;28;20397;-92
2022/03/29 05:45:07;;;;;;;37.53;18.52;;;;;;;;;;5033795;28;20033;-84
2022/03/29 05:50:17;;;;;;;40.92;19.23;;;;;;;;;;5032620;28;20068;-83
2022/03/29 05:52:42;;;;;;;45.03;21.73;;;;;;;;;;5028030;28;20049;-92
2022/03/29 05:55:07;;;;;;;39.35;19.55;;;;;;;;;;5013137;28;20029;-83
2022/03/29 05:57:33;;;;;;;49.58;23.83;;;;;;;;;;5013400;28;20454;-92
2022/03/29 05:59:58;;;;;;;45.08;23.10;;;;;;;;;;5033535;28;20171;-91
2022/03/29 06:02:24;;;;;;;45.30;25.52;;;;;;;;;;5033656;28;20030;-93
2022/03/29 06:04:50;;;;;;;54.30;26.67;;;;;;;;;;5030992;28;20040;-88
2022/03/29 06:07:15;;;;;;;48.05;23.38;;;;;;;;;;5035226;28;20013;-92
2022/03/29 06:09:40;;;;;;;47.90;23.25;;;;;;;;;;5049629;28;20020;-92
2022/03/29 06:12:05;;;;;;;43.70;23.08;;;;;;;;;;5032460;28;20021;-92
2022/03/29 06:14:31;;;;;;;50.33;25.02;;;;;;;;;;5032629;28;20028;-92
2022/03/29 06:16:57;;;;;;;49.35;24.33;;;;;;;;;;5033076;28;20060;-87
2022/03/29 06:19:22;;;;;;;50.83;23.80;;;;;;;;;;5031371;28;20071;-92
2022/03/29 06:21:47;;;;;;;50.92;22.98;;;;;;;;;;5032781;28;20014;-92
2022/03/29 06:24:12;;;;;;;57.03;26.67;;;;;;;;;;5048414;28;20034;-92
2022/03/29 06:26:39;;;;;;;83.43;42.08;;;;;;;;;;5032984;28;20108;-92
2022/03/29 06:29:08;;;;;;;55.97;29.08;;;;;;;;;;5047359;28;20458;-91
2022/03/29 06:31:33;;;;;;;59.67;31.13;;;;;;;;;;5012978;28;20116;-92
2022/03/29 06:33:59;;;;;;;45.47;21.70;;;;;;;;;;5012667;28;20053;-93
2022/03/29 06:36:25;;;;;;;45.92;24.20;;;;;;;;;;5012225;28;20108;-92
2022/03/29 06:38:50;;;;;;;41.33;21.50;;;;;;;;;;5025678;28;20096;-88
2022/03/29 06:41:15;;;;;;;44.47;23.67;;;;;;;;;;5047070;28;20033;-88
2022/03/29 06:43:41;;;;;;;49.78;26.88;;;;;;;;;;5030503;28;20017;-92
2022/03/29 06:46:08;;;;;;;55.13;28.83;;;;;;;;;;5031118;28;20025;-85
2022/03/29 06:48:34;;;;;;;49.72;28.80;;;;;;;;;;5026944;28;20180;-91
2022/03/29 06:50:59;;;;;;;46.45;21.90;;;;;;;;;;5043137;28;20115;-92
2022/03/29 06:53:24;;;;;;;40.50;20.70;;;;;;;;;;5012644;28;20447;-92
2022/03/29 06:55:51;;;;;;;40.95;21.10;;;;;;;;;;5018330;28;20025;-93
2022/03/29 06:58:17;;;;;;;49.40;23.65;;;;;;;;;;5025086;28;20045;-92
2022/03/29 07:00:42;;;;;;;54.10;24.10;;;;;;;;;;5012187;28;20383;-84
2022/03/29 07:03:07;;;;;;;43.72;22.48;;;;;;;;;;5012452;28;20366;-89
2022/03/29 07:05:32;;;;;;;42.33;22.75;;;;;;;;;;5013675;28;20022;-91
2022/03/29 07:07:57;;;;;;;43.83;21.52;;;;;;;;;;5031764;28;20538;-93
2022/03/29 07:13:07;;;;;;;51.53;26.35;;;;;;;;;;5032562;28;20052;-84
2022/03/29 07:15:32;;;;;;;44.58;23.00;;;;;;;;;;5021896;28;20026;-93
2022/03/29 07:17:59;;;;;;;111.10;61.47;;;;;;;;;;5019745;28;20021;-84
2022/03/29 07:20:24;;;;;;;45.88;23.50;;;;;;;;;;5051155;28;20464;-91
2022/03/29 07:22:50;;;;;;;40.17;20.92;;;;;;;;;;5034141;28;20060;-92
2022/03/29 07:25:18;;;;;;;41.03;20.98;;;;;;;;;;5051246;28;20394;-91
2022/03/29 07:27:43;;;;;;;48.10;23.50;;;;;;;;;;5035328;28;20027;-91
2022/03/29 07:30:10;;;;;;;45.67;23.85;;;;;;;;;;5034579;28;20030;-91
2022/03/29 07:32:41;;;;;;;41.03;22.20;;;;;;;;;;5033942;28;20111;-93
2022/03/29 07:35:07;;;;;;;53.05;26.80;;;;;;;;;;5033782;28;20401;-92
2022/03/29 07:37:32;;;;;;;49.60;27.17;;;;;;;;;;5034400;28;20025;-92
2022/03/29 07:39:57;;;;;;;41.40;21.13;;;;;;;;;;5033503;28;20025;-92
2022/03/29 07:42:22;;;;;;;42.40;20.38;;;;;;;;;;5033528;28;20022;-90
2022/03/29 07:44:50;;;;;;;46.10;22.35;;;;;;;;;;5034931;28;20462;-92
2022/03/29 07:47:15;;;;;;;45.53;22.83;;;;;;;;;;5030132;28;20018;-92
2022/03/29 07:49:42;;;;;;;44.40;20.85;;;;;;;;;;5029012;28;20080;-93
2022/03/29 07:52:07;;;;;;;47.20;22.23;;;;;;;;;;5029046;28;20029;-91
2022/03/29 07:54:32;;;;;;;47.78;21.40;;;;;;;;;;5034001;28;20022;-92
2022/03/29 07:56:58;;;;;;;42.92;19.63;;;;;;;;;;5034630;28;20105;-91
2022/03/29 07:59:23;;;;;;;43.30;21.40;;;;;;;;;;5034777;28;20019;-92
2022/03/29 08:01:48;;;;;;;43.63;20.10;;;;;;;;;;5034982;28;20017;-92
2022/03/29 08:04:13;;;;;;;48.90;21.77;;;;;;;;;;5049306;28;20452;-92
2022/03/29 08:06:39;;;;;;;43.50;22.02;;;;;;;;;;5033634;28;20010;-89
2022/03/29 08:09:04;;;;;;;44.88;21.45;;;;;;;;;;5036428;28;20025;-92
2022/03/29 08:11:29;;;;;;;40.13;20.52;;;;;;;;;;5014437;28;20014;-91
2022/03/29 08:13:56;;;;;;;43.47;22.13;;;;;;;;;;5014570;28;20014;-91
2022/03/29 08:16:21;;;;;;;39.33;20.55;;;;;;;;;;5013801;28;20455;-92
2022/03/29 08:18:46;;;;;;;46.60;22.77;;;;;;;;;;5026093;28;20029;-92
2022/03/29 08:23:56;;;;;;;42.75;20.55;;;;;;;;;;5053653;28;20040;-92
2022/03/29 08:26:21;;;;;;;43.85;21.02;;;;;;;;;;5052955;28;20024;-91
2022/03/29 08:28:46;;;;;;;41.65;20.77;;;;;;;;;;5041944;28;20057;-84
2022/03/29 08:31:12;;;;;;;42.70;21.05;;;;;;;;;;5029482;28;20426;-93
2022/03/29 08:33:37;;;;;;;45.47;20.63;;;;;;;;;;5014445;28;20050;-84
2022/03/29 08:36:03;;;;;;;42.85;22.05;;;;;;;;;;5014415;28;20018;-92
2022/03/29 08:38:29;;;;;;;46.47;22.30;;;;;;;;;;5038184;28;20014;-92
2022/03/29 08:40:56;;;;;;;42.80;21.60;;;;;;;;;;5034017;28;20370;-92
2022/03/29 08:43:22;;;;;;;41.15;21.73;;;;;;;;;;5034529;28;20052;-92
2022/03/29 08:45:48;;;;;;;40.35;22.90;;;;;;;;;;5033820;28;20036;-88
2022/03/29 08:48:14;;;;;;;41.13;21.85;;;;;;;;;;5049415;28;20096;-92
2022/03/29 08:50:40;;;;;;;45.95;22.15;;;;;;;;;;5032736;28;20025;-92
2022/03/29 08:53:07;;;;;;;43.92;22.20;;;;;;;;;;5032504;28;20360;-91
2022/03/29 08:55:33;;;;;;;39.38;21.42;;;;;;;;;;5033427;28;20080;-91
2022/03/29 08:57:58;;;;;;;39.47;22.08;;;;;;;;;;5032501;28;20041;-91
2022/03/29 09:00:26;;;;;;;44.85;21.80;;;;;;;;;;5033451;28;20022;-84
2022/03/29 09:02:52;;;;;;;44.33;21.27;;;;;;;;;;5032844;28;20018;-92
2022/03/29 09:05:21;;;;;;;46.45;22.23;;;;;;;;;;5033387;28;20044;-92
2022/03/29 09:07:47;;;;;;;42.83;21.90;;;;;;;;;;5032611;28;20026;-89
2022/03/29 09:10:12;;;;;;;41.03;20.85;;;;;;;;;;5033404;28;20025;-92
2022/03/29 09:12:38;;;;;;;45.17;22.60;;;;;;;;;;5032533;28;20124;-92
2022/03/29 09:15:04;;;;;;;45.60;22.75;;;;;;;;;;5031988;28;20417;-92
2022/03/29 09:17:31;;;;;;;40.28;21.02;;;;;;;;;;5031820;28;20029;-92
2022/03/29 09:19:56;;;;;;;43.10;20.33;;;;;;;;;;5033195;28;20083;-91
2022/03/29 09:23:00;;;;;;;41.28;21.45;;;;;;;;;;5033369;28;20021;-92
2022/03/29 09:25:35;;;;;;;41.25;21.10;;;;;;;;;;4991087;28;20034;-91
2022/03/29 09:28:05;;;;;;;39.97;19.60;;;;;;;;;;4991724;28;20046;-87
2022/03/29 09:30:39;;;;;;;39.63;21.85;;;;;;;;;;5021556;28;20033;-92
2022/03/29 09:33:06;;;;;;;39.63;20.95;;;;;;;;;;5032973;28;20025;-91
2022/03/29 09:35:33;;;;;;;39.42;20.55;;;;;;;;;;5048427;28;20025;-92
2022/03/29 09:37:59;;;;;;;55.78;25.67;;;;;;;;;;5032587;28;20104;-91
2022/03/29 09:40:38;;;;;;;50.50;23.33;;;;;;;;;;5033033;28;20033;-91
2022/03/29 09:43:10;;;;;;;39.60;19.92;;;;;;;;;;5043775;28;20021;-92
2022/03/29 09:45:43;;;;;;;39.63;20.65;;;;;;;;;;5043865;28;20025;-92
2022/03/29 09:48:27;;;;;;;35.45;17.67;;;;;;;;;;5048260;28;20028;-91
2022/03/29 09:51:15;;;;;;;36.33;18.17;;;;;;;;;;5026169;28;20025;-91
2022/03/29 09:53:43;;;;;;;38.05;18.70;;;;;;;;;;5048316;28;20071;-92
2022/03/29 09:56:12;;;;;;;39.53;20.13;;;;;;;;;;5033054;28;20017;-91
2022/03/29 09:58:38;;;;;;;39.45;19.45;;;;;;;;;;5032222;28;20017;-92
2022/03/29 10:01:04;;;;;;;36.70;18.95;;;;;;;;;;5032941;28;20028;-91
2022/03/29 10:03:31;;;;;;;36.72;19.27;;;;;;;;;;5032800;28;20079;-91
2022/03/29 10:06:01;;;;;;;38.63;18.92;;;;;;;;;;5032628;28;20075;-84
2022/03/29 10:11:12;;;;;;;35.03;16.42;;;;;;;;;;5033090;28;20029;-90
2022/03/29 10:13:38;;;;;;;36.97;16.33;;;;;;;;;;5032899;28;20026;-91
2022/03/29 10:16:04;;;;;;;37.22;18.90;;;;;;;;;;5031845;28;20036;-92
2022/03/29 10:18:29;;;;;;;33.58;16.40;;;;;;;;;;5031527;28;20382;-92
2022/03/29 10:20:56;;;;;;;31.48;15.43;;;;;;;;;;5032122;28;20024;-93
2022/03/29 10:23:24;;;;;;;32.03;15.50;;;;;;;;;;5047410;28;20193;-87
2022/03/29 10:25:51;;;;;;;29.55;14.23;;;;;;;;;;5046882;28;20053;-87
2022/03/29 10:28:16;;;;;;;34.30;15.15;;;;;;;;;;5046965;28;20063;-87
2022/03/29 10:30:42;;;;;;;32.88;15.02;;;;;;;;;;5031077;28;20432;-87
2022/03/29 10:33:23;;;;;;;29.60;14.38;;;;;;;;;;5029494;28;20108;-87
2022/03/29 10:35:58;;;;;;;26.02;12.45;;;;;;;;;;5021738;28;20034;-87
2022/03/29 10:38:46;;;;;;;24.17;11.95;;;;;;;;;;5017087;28;20025;-87
2022/03/29 10:41:26;;;;;;;30.85;13.60;;;;;;;;;;5031700;28;20013;-86
2022/03/29 10:43:52;;;;;;;29.90;13.45;;;;;;;;;;5030359;28;20436;-87
2022/03/29 10:46:22;;;;;;;27.20;13.30;;;;;;;;;;5030604;28;20030;-87
2022/03/29 10:49:06;;;;;;;28.30;13.25;;;;;;;;;;5030205;28;20025;-87
2022/03/29 10:51:31;;;;;;;27.15;13.07;;;;;;;;;;5034148;28;20028;-80
2022/03/29 10:54:16;;;;;;;28.08;13.25;;;;;;;;;;5051028;28;20025;-87
2022/03/29 10:56:57;;;;;;;27.80;12.52;;;;;;;;;;5050555;28;20030;-86
2022/03/29 10:59:22;;;;;;;30.88;13.23;;;;;;;;;;5051355;28;20021;-92
2022/03/29 11:02:06;;;;;;;25.73;12.93;;;;;;;;;;5050687;28;20029;-85
2022/03/29 11:04:31;;;;;;;28.90;14.10;;;;;;;;;;5036238;28;20113;-91
2022/03/29 11:07:14;;;;;;;28.80;12.30;;;;;;;;;;5042904;28;20144;-92
2022/03/29 11:09:41;;;;;;;28.33;12.93;;;;;;;;;;5034044;28;20028;-87
2022/03/29 11:12:26;;;;;;;28.52;12.15;;;;;;;;;;5051105;28;20020;-88
2022/03/29 11:14:51;;;;;;;25.50;11.90;;;;;;;;;;5035869;28;20064;-91
2022/03/29 11:17:17;;;;;;;24.38;10.75;;;;;;;;;;5020857;28;20026;-91
2022/03/29 11:19:44;;;;;;;25.98;12.40;;;;;;;;;;5034514;28;20033;-92
2022/03/29 11:22:21;;;;;;;24.40;11.13;;;;;;;;;;5035818;28;20027;-88
2022/03/29 11:24:47;;;;;;;26.35;10.57;;;;;;;;;;5034563;28;20037;-92
2022/03/29 11:27:19;;;;;;;24.13;10.82;;;;;;;;;;5035713;28;20017;-92
2022/03/29 11:29:45;;;;;;;23.05;11.02;;;;;;;;;;5051841;28;20061;-88
2022/03/29 11:32:19;;;;;;;24.17;10.98;;;;;;;;;;5034749;28;20017;-93
2022/03/29 11:34:45;;;;;;;24.45;10.85;;;;;;;;;;5034641;28;19997;-93
2022/03/29 11:37:29;;;;;;;22.20;10.73;;;;;;;;;;5050424;28;20090;-91
2022/03/29 11:39:56;;;;;;;24.70;11.00;;;;;;;;;;5013870;28;20026;-92
2022/03/29 11:42:21;;;;;;;27.52;12.63;;;;;;;;;;5016937;28;20071;-90
2022/03/29 11:44:47;;;;;;;29.20;12.80;;;;;;;;;;5050789;28;20029;-91
2022/03/29 11:47:12;;;;;;;27.25;12.93;;;;;;;;;;5050553;28;20033;-89
2022/03/29 11:49:38;;;;;;;25.60;13.20;;;;;;;;;;5017668;28;20026;-84
2022/03/29 11:52:14;;;;;;;23.95;12.40;;;;;;;;;;5014069;28;20018;-91
2022/03/29 11:54:44;;;;;;;23.75;11.45;;;;;;;;;;5014078;28;20067;-90
2022/03/29 11:57:30;;;;;;;26.23;11.20;;;;;;;;;;5015429;28;20021;-87
2022/03/29 11:59:56;;;;;;;22.95;10.50;;;;;;;;;;5015146;28;20022;-92
2022/03/29 12:02:25;;;;;;;28.55;12.13;;;;;;;;;;5013871;28;20159;-90
2022/03/29 12:04:51;;;;;;;24.88;12.27;;;;;;;;;;5029739;28;20525;-91
2022/03/29 12:07:17;;;;;;;24.48;10.77;;;;;;;;;;5013861;28;20018;-90
2022/03/29 12:09:48;;;;;;;22.83;10.43;;;;;;;;;;5033698;28;20095;-91
2022/03/29 12:12:13;;;;;;;;;;;;;;;;;;5035339;28;20087;-84
2022/03/29 12:14:38;;;;;;;20.08;10.15;;;;;;;;;;5033627;28;19909;-84
2022/03/29 12:17:04;;;;;;;24.88;11.80;;;;;;;;;;5035662;28;20014;-84
2022/03/29 12:19:31;;;;;;;31.05;16.65;;;;;;;;;;5034518;28;20032;-92
2022/03/29 12:22:01;;;;;;;29.48;11.95;;;;;;;;;;5046653;28;20418;-92
2022/03/29 12:24:30;;;;;;;24.55;12.38;;;;;;;;;;5014292;28;20498;-91
2022/03/29 12:27:04;;;;;;;24.63;11.60;;;;;;;;;;5014741;28;20033;-91
2022/03/29 12:29:30;;;;;;;24.38;12.50;;;;;;;;;;5032018;28;20048;-92
2022/03/29 12:31:56;;;;;;;29.40;13.13;;;;;;;;;;5034845;28;20021;-89
2022/03/29 12:34:23;;;;;;;27.50;12.23;;;;;;;;;;5050328;28;20029;-90
2022/03/29 12:36:49;;;;;;;30.00;14.27;;;;;;;;;;5034750;28;20474;-89
2022/03/29 12:39:14;;;;;;;30.33;13.68;;;;;;;;;;5032624;28;20042;-92
2022/03/29 12:41:47;;;;;;;28.98;13.75;;;;;;;;;;5035723;28;20021;-91
2022/03/29 12:44:14;;;;;;;32.65;15.65;;;;;;;;;;5030571;28;20130;-91
2022/03/29 12:46:44;;;;;;;28.40;14.73;;;;;;;;;;5029064;28;20100;-90
2022/03/29 12:49:10;;;;;;;29.42;14.98;;;;;;;;;;5033418;28;20084;-91
2022/03/29 12:51:39;;;;;;;33.33;15.20;;;;;;;;;;5034036;28;20029;-91
2022/03/29 12:54:09;;;;;;;31.48;15.38;;;;;;;;;;5049713;28;20029;-84
2022/03/29 12:56:38;;;;;;;31.27;14.70;;;;;;;;;;5049644;28;20021;-89
2022/03/29 12:59:22;;;;;;;32.10;15.20;;;;;;;;;;5033620;28;20024;-84
2022/03/29 13:01:47;;;;;;;30.65;15.60;;;;;;;;;;5034051;28;20116;-85
2022/03/29 13:04:13;;;;;;;32.92;17.27;;;;;;;;;;5034006;28;20097;-90
2022/03/29 13:06:42;;;;;;;33.47;18.08;;;;;;;;;;5032678;28;20014;-88
2022/03/29 13:09:11;;;;;;;32.42;16.40;;;;;;;;;;5020248;28;20525;-91
2022/03/29 13:11:37;;;;;;;36.97;17.35;;;;;;;;;;5030257;28;20018;-88
2022/03/29 13:14:07;;;;;;;31.75;17.17;;;;;;;;;;5012839;28;20029;-89
2022/03/29 13:16:32;;;;;;;30.73;16.92;;;;;;;;;;5013988;28;20516;-84
2022/03/29 13:18:58;;;;;;;35.33;16.88;;;;;;;;;;5024852;28;20022;-90
2022/03/29 13:21:25;;;;;;;34.92;16.58;;;;;;;;;;5032246;28;20382;-89
2022/03/29 13:23:52;;;;;;;33.28;17.67;;;;;;;;;;5012899;28;20021;-84
2022/03/29 13:26:18;;;;;;;33.20;17.35;;;;;;;;;;5013377;28;20029;-90
2022/03/29 13:28:44;;;;;;;35.92;17.80;;;;;;;;;;5023304;28;20021;-91
2022/03/29 13:31:13;;;;;;;35.83;17.88;;;;;;;;;;5048806;28;20017;-89
2022/03/29 13:33:39;;;;;;;37.67;18.23;;;;;;;;;;5032711;28;20013;-90
2022/03/29 13:36:05;;;;;;;37.63;19.38;;;;;;;;;;5033229;28;20533;-90
2022/03/29 13:38:31;;;;;;;35.03;17.55;;;;;;;;;;5032937;28;20382;-91
2022/03/29 13:40:56;;;;;;;33.97;17.20;;;;;;;;;;5032717;28;20025;-91
2022/03/29 13:43:21;;;;;;;38.13;17.70;;;;;;;;;;5031728;28;20022;-85
2022/03/29 13:45:47;;;;;;;30.65;17.13;;;;;;;;;;5033253;28;20021;-90
2022/03/29 13:48:13;;;;;;;33.60;17.75;;;;;;;;;;5032267;28;20056;-90
2022/03/29 13:50:39;;;;;;;39.10;17.85;;;;;;;;;;5047888;28;20033;-91
2022/03/29 13:53:04;;;;;;;37.65;18.58;;;;;;;;;;5031979;28;20479;-90
2022/03/29 13:55:34;;;;;;;35.35;18.00;;;;;;;;;;5031364;28;20021;-89
2022/03/29 13:58:00;;;;;;;35.58;17.90;;;;;;;;;;5032659;28;20013;-91
2022/03/29 14:00:26;;;;;;;36.60;18.55;;;;;;;;;;5047710;28;20021;-87
2022/03/29 14:02:51;;;;;;;38.13;17.80;;;;;;;;;;5032499;28;20018;-90
2022/03/29 14:05:16;;;;;;;36.90;19.10;;;;;;;;;;5047766;28;20544;-90
2022/03/29 14:07:41;;;;;;;33.83;17.95;;;;;;;;;;5029905;28;20053;-90
2022/03/29 14:10:07;;;;;;;37.15;17.25;;;;;;;;;;5011874;28;20021;-89
2022/03/29 14:12:32;;;;;;;33.63;16.77;;;;;;;;;;5012344;28;20483;-90
2022/03/29 14:14:57;;;;;;;38.22;18.00;;;;;;;;;;5027209;28;20028;-90
2022/03/29 14:17:22;;;;;;;36.42;18.50;;;;;;;;;;5012404;28;20022;-91
2022/03/29 14:19:51;;;;;;;32.90;16.10;;;;;;;;;;5031494;28;20462;-91
2022/03/29 14:22:16;;;;;;;36.22;17.25;;;;;;;;;;5032278;28;20048;-90
2022/03/29 14:24:42;;;;;;;36.60;15.70;;;;;;;;;;5032362;28;20061;-91
2022/03/29 14:27:07;;;;;;;31.27;16.05;;;;;;;;;;5051821;28;20083;-89